Time,TemperatureF,DewpointF,PressureIn,WindDirection,WindDirectionDegrees,WindSpeedMPH,WindSpeedGustMPH,Humidity,HourlyPrecipIn,Conditions,Clouds,dailyrainin,SoftwareType,DateUTC
2013-08-29 00:01:00,69.5,45.4,30.16,East,84,0.0,0.0,42,0.00,,,0.00,vanprod-2.5-rc3,2013-08-29 06:01:00,
2013-08-29 00:06:00,68.9,45.5,30.16,East,92,0.0,0.0,43,0.00,,,0.00,vanprod-2.5-rc3,2013-08-29 06:06:00,
2013-08-29 00:11:00,68.5,45.1,30.16,East,90,0.0,0.0,43,0.00,,,0.00,vanprod-2.5-rc3,2013-08-29 06:11:00,
2013-08-29 00:16:00,68.2,45.5,30.15,East,92,0.0,0.0,44,0.00,,,0.00,vanprod-2.5-rc3,2013-08-29 06:16:00,
2013-08-29 00:21:00,67.9,45.2,30.15,East,86,0.0,0.0,44,0.00,,,0.00,vanprod-2.5-rc3,2013-08-29 06:21:00,
2013-08-29 00:26:00,67.6,45.5,30.15,East,84,1.0,3.0,45,0.00,,,0.00,vanprod-2.5-rc3,2013-08-29 06:26:00,
2013-08-29 00:31:00,67.4,45.3,30.15,East,84,0.0,0.0,45,0.00,,,0.00,vanprod-2.5-rc3,2013-08-29 06:31:00,
2013-08-29 00:36:00,67.1,45.1,30.15,East,87,0.0,0.0,45,0.00,,,0.00,vanprod-2.5-rc3,2013-08-29 06:36:00,
2013-08-29 00:41:00,66.8,45.9,30.16,East,95,0.0,0.0,47,0.00,,,0.00,vanprod-2.5-rc3,2013-08-29 06:41:00,
2013-08-29 00:46:00,66.6,46.3,30.16,ESE,115,0.0,0.0,48,0.00,,,0.00,vanprod-2.5-rc3,2013-08-29 06:46:00,
2013-08-29 00:51:00,66.6,45.8,30.16,East,79,0.0,0.0,47,0.00,,,0.00,vanprod-2.5-rc3,2013-08-29 06:51:00,
2013-08-29 00:56:00,66.5,46.2,30.16,ENE,65,0.0,0.0,48,0.00,,,0.00,vanprod-2.5-rc3,2013-08-29 06:56:00,
2013-08-29 01:01:00,66.4,45.6,30.17,ENE,72,0.0,0.0,47,0.00,,,0.00,vanprod-2.5-rc3,2013-08-29 07:01:00,
2013-08-29 01:06:00,66.3,45.5,30.17,ENE,72,0.0,0.0,47,0.00,,,0.00,vanprod-2.5-rc3,2013-08-29 07:06:00,
2013-08-29 01:11:00,66.1,45.9,30.17,ENE,72,0.0,0.0,48,0.00,,,0.00,vanprod-2.5-rc3,2013-08-29 07:11:00,
2013-08-29 01:16:00,65.9,46.2,30.17,ENE,72,0.0,0.0,49,0.00,,,0.00,vanprod-2.5-rc3,2013-08-29 07:16:00,
2013-08-29 01:21:00,66.0,46.3,30.17,SE,126,0.0,0.0,49,0.00,,,0.00,vanprod-2.5-rc3,2013-08-29 07:21:00,
2013-08-29 01:26:00,66.1,45.9,30.17,ESE,116,0.0,0.0,48,0.00,,,0.00,vanprod-2.5-rc3,2013-08-29 07:26:00,
2013-08-29 01:31:00,66.1,46.4,30.18,East,96,0.0,0.0,49,0.00,,,0.00,vanprod-2.5-rc3,2013-08-29 07:31:00,
2013-08-29 01:36:00,66.1,46.9,30.18,ESE,107,0.0,0.0,50,0.00,,,0.00,vanprod-2.5-rc3,2013-08-29 07:36:00,
2013-08-29 01:41:00,66.3,47.1,30.18,ESE,114,0.0,0.0,50,0.00,,,0.00,vanprod-2.5-rc3,2013-08-29 07:41:00,
2013-08-29 01:46:00,66.7,47.0,30.17,ESE,102,0.0,0.0,49,0.00,,,0.00,vanprod-2.5-rc3,2013-08-29 07:46:00,
2013-08-29 01:51:00,66.9,47.1,30.17,East,95,0.0,0.0,49,0.00,,,0.00,vanprod-2.5-rc3,2013-08-29 07:51:00,
2013-08-29 01:56:00,67.0,47.2,30.17,East,89,0.0,0.0,49,0.00,,,0.00,vanprod-2.5-rc3,2013-08-29 07:56:00,
2013-08-29 02:01:00,66.9,47.1,30.18,East,98,1.0,4.0,49,0.00,,,0.00,vanprod-2.5-rc3,2013-08-29 08:01:00,
2013-08-29 02:06:00,66.8,47.0,30.18,East,101,1.0,0.0,49,0.00,,,0.00,vanprod-2.5-rc3,2013-08-29 08:06:00,
2013-08-29 02:11:00,66.9,47.1,30.18,East,101,1.0,4.0,49,0.00,,,0.00,vanprod-2.5-rc3,2013-08-29 08:11:00,
2013-08-29 02:16:00,67.0,47.2,30.18,ESE,112,0.0,0.0,49,0.00,,,0.00,vanprod-2.5-rc3,2013-08-29 08:16:00,
2013-08-29 02:21:00,66.9,47.1,30.18,ESE,108,2.0,4.0,49,0.00,,,0.00,vanprod-2.5-rc3,2013-08-29 08:21:00,
2013-08-29 02:26:00,66.8,47.0,30.18,ESE,104,0.0,0.0,49,0.00,,,0.00,vanprod-2.5-rc3,2013-08-29 08:26:00,
2013-08-29 02:31:00,66.7,47.0,30.18,ESE,103,0.0,0.0,49,0.00,,,0.00,vanprod-2.5-rc3,2013-08-29 08:31:00,
2013-08-29 02:36:00,66.4,47.2,30.17,East,95,0.0,0.0,50,0.00,,,0.00,vanprod-2.5-rc3,2013-08-29 08:36:00,
2013-08-29 02:41:00,66.1,46.9,30.17,ESE,103,0.0,0.0,50,0.00,,,0.00,vanprod-2.5-rc3,2013-08-29 08:41:00,
2013-08-29 02:46:00,65.9,46.8,30.17,ESE,103,0.0,0.0,50,0.00,,,0.00,vanprod-2.5-rc3,2013-08-29 08:46:00,
2013-08-29 02:51:00,65.7,47.1,30.17,ESE,103,0.0,0.0,51,0.00,,,0.00,vanprod-2.5-rc3,2013-08-29 08:51:00,
2013-08-29 02:56:00,65.6,47.0,30.17,East,99,0.0,0.0,51,0.00,,,0.00,vanprod-2.5-rc3,2013-08-29 08:56:00,
2013-08-29 03:01:00,65.3,46.2,30.16,East,93,0.0,0.0,50,0.00,,,0.00,vanprod-2.5-rc3,2013-08-29 09:01:00,
2013-08-29 03:06:00,64.8,45.7,30.17,East,81,2.0,2.0,50,0.00,,,0.00,vanprod-2.5-rc3,2013-08-29 09:06:00,
2013-08-29 03:11:00,64.1,45.6,30.17,East,80,0.0,0.0,51,0.00,,,0.00,vanprod-2.5-rc3,2013-08-29 09:11:00,
2013-08-29 03:16:00,63.7,45.8,30.18,East,81,0.0,0.0,52,0.00,,,0.00,vanprod-2.5-rc3,2013-08-29 09:16:00,
2013-08-29 03:22:00,63.1,45.7,30.17,East,81,0.0,0.0,53,0.00,,,0.00,vanprod-2.5-rc3,2013-08-29 09:22:00,
2013-08-29 03:27:00,62.7,45.8,30.18,East,79,0.0,0.0,54,0.00,,,0.00,vanprod-2.5-rc3,2013-08-29 09:27:00,
2013-08-29 03:32:00,62.4,46.0,30.16,ENE,71,2.0,4.0,55,0.00,,,0.00,vanprod-2.5-rc3,2013-08-29 09:32:00,
2013-08-29 03:37:00,62.3,46.4,30.16,ENE,69,4.0,5.0,56,0.00,,,0.00,vanprod-2.5-rc3,2013-08-29 09:37:00,
2013-08-29 03:42:00,62.2,46.8,30.17,ENE,74,5.0,6.0,57,0.00,,,0.00,vanprod-2.5-rc3,2013-08-29 09:42:00,
2013-08-29 03:47:00,62.3,46.9,30.17,ENE,71,5.0,7.0,57,0.00,,,0.00,vanprod-2.5-rc3,2013-08-29 09:47:00,
2013-08-29 03:52:00,62.4,47.0,30.17,ENE,75,5.0,6.0,57,0.00,,,0.00,vanprod-2.5-rc3,2013-08-29 09:52:00,
2013-08-29 03:57:00,62.4,46.5,30.17,ENE,74,2.0,0.0,56,0.00,,,0.00,vanprod-2.5-rc3,2013-08-29 09:57:00,
2013-08-29 04:02:00,62.3,46.9,30.17,ENE,71,3.0,4.0,57,0.00,,,0.00,vanprod-2.5-rc3,2013-08-29 10:02:00,
2013-08-29 04:07:00,62.1,46.7,30.17,East,85,2.0,3.0,57,0.00,,,0.00,vanprod-2.5-rc3,2013-08-29 10:07:00,
2013-08-29 04:12:00,61.9,46.5,30.17,East,84,0.0,0.0,57,0.00,,,0.00,vanprod-2.5-rc3,2013-08-29 10:12:00,
2013-08-29 04:17:00,61.6,46.7,30.17,ENE,74,3.0,4.0,58,0.00,,,0.00,vanprod-2.5-rc3,2013-08-29 10:17:00,
2013-08-29 04:22:00,61.5,46.6,30.17,ENE,77,0.0,0.0,58,0.00,,,0.00,vanprod-2.5-rc3,2013-08-29 10:22:00,
2013-08-29 04:27:00,61.3,46.4,30.17,East,81,0.0,0.0,58,0.00,,,0.00,vanprod-2.5-rc3,2013-08-29 10:27:00,
2013-08-29 04:32:00,61.1,46.7,30.17,East,82,0.0,0.0,59,0.00,,,0.00,vanprod-2.5-rc3,2013-08-29 10:32:00,
2013-08-29 04:37:00,60.8,46.4,30.17,East,86,0.0,0.0,59,0.00,,,0.00,vanprod-2.5-rc3,2013-08-29 10:37:00,
2013-08-29 04:42:00,60.6,46.7,30.17,ENE,75,2.0,3.0,60,0.00,,,0.00,vanprod-2.5-rc3,2013-08-29 10:42:00,
2013-08-29 04:47:00,60.5,47.0,30.17,East,82,3.0,3.0,61,0.00,,,0.00,vanprod-2.5-rc3,2013-08-29 10:47:00,
2013-08-29 04:52:00,60.5,47.0,30.17,East,86,3.0,4.0,61,0.00,,,0.00,vanprod-2.5-rc3,2013-08-29 10:52:00,
2013-08-29 04:57:00,60.5,47.4,30.17,East,84,0.0,0.0,62,0.00,,,0.00,vanprod-2.5-rc3,2013-08-29 10:57:00,
2013-08-29 05:02:00,60.6,47.5,30.17,East,93,0.0,0.0,62,0.00,,,0.00,vanprod-2.5-rc3,2013-08-29 11:02:00,
2013-08-29 05:07:00,60.9,47.8,30.20,ESE,103,1.0,5.0,62,0.00,,,0.00,vanprod-2.5-rc3,2013-08-29 11:07:00,
2013-08-29 05:12:00,61.3,47.8,30.20,ESE,106,4.0,5.0,61,0.00,,,0.00,vanprod-2.5-rc3,2013-08-29 11:12:00,
2013-08-29 05:17:00,61.7,48.1,30.20,East,98,3.0,3.0,61,0.00,,,0.00,vanprod-2.5-rc3,2013-08-29 11:17:00,
2013-08-29 05:22:00,61.9,47.9,30.20,ENE,73,4.0,5.0,60,0.00,,,0.00,vanprod-2.5-rc3,2013-08-29 11:22:00,
2013-08-29 05:27:00,61.8,47.8,30.20,East,88,0.0,0.0,60,0.00,,,0.00,vanprod-2.5-rc3,2013-08-29 11:27:00,
2013-08-29 05:32:00,61.6,47.6,30.18,ESE,103,0.0,0.0,60,0.00,,,0.00,vanprod-2.5-rc3,2013-08-29 11:32:00,
2013-08-29 05:37:00,61.4,47.4,30.18,ESE,104,0.0,0.0,60,0.00,,,0.00,vanprod-2.5-rc3,2013-08-29 11:37:00,
2013-08-29 05:42:00,61.3,47.3,30.18,ESE,102,0.0,0.0,60,0.00,,,0.00,vanprod-2.5-rc3,2013-08-29 11:42:00,
2013-08-29 05:47:00,61.1,46.7,30.18,East,96,0.0,0.0,59,0.00,,,0.00,vanprod-2.5-rc3,2013-08-29 11:47:00,
2013-08-29 05:52:00,60.8,46.4,30.18,East,94,0.0,0.0,59,0.00,,,0.00,vanprod-2.5-rc3,2013-08-29 11:52:00,
2013-08-29 05:57:00,60.5,46.6,30.18,East,86,0.0,0.0,60,0.00,,,0.00,vanprod-2.5-rc3,2013-08-29 11:57:00,
2013-08-29 06:02:00,60.1,46.2,30.20,East,86,0.0,0.0,60,0.00,,,0.00,vanprod-2.5-rc3,2013-08-29 12:02:00,
2013-08-29 06:07:00,59.8,45.9,30.21,East,88,0.0,0.0,60,0.00,,,0.00,vanprod-2.5-rc3,2013-08-29 12:07:00,
2013-08-29 06:12:00,59.4,46.0,30.19,East,89,0.0,0.0,61,0.00,,,0.00,vanprod-2.5-rc3,2013-08-29 12:12:00,
2013-08-29 06:17:00,59.1,45.7,30.19,East,89,0.0,0.0,61,0.00,,,0.00,vanprod-2.5-rc3,2013-08-29 12:17:00,
2013-08-29 06:22:00,59.0,46.0,30.19,East,88,0.0,0.0,62,0.00,,,0.00,vanprod-2.5-rc3,2013-08-29 12:22:00,
2013-08-29 06:27:00,59.0,46.4,30.20,East,88,0.0,0.0,63,0.00,,,0.00,vanprod-2.5-rc3,2013-08-29 12:27:00,
2013-08-29 06:32:00,59.0,46.4,30.20,East,91,0.0,0.0,63,0.00,,,0.00,vanprod-2.5-rc3,2013-08-29 12:32:00,
2013-08-29 06:37:00,59.0,46.9,30.20,East,98,0.0,0.0,64,0.00,,,0.00,vanprod-2.5-rc3,2013-08-29 12:37:00,
2013-08-29 06:42:00,59.3,46.7,30.20,ENE,70,0.0,0.0,63,0.00,,,0.00,vanprod-2.5-rc3,2013-08-29 12:42:00,
2013-08-29 06:47:00,59.4,46.8,30.21,ENE,77,0.0,0.0,63,0.00,,,0.00,vanprod-2.5-rc3,2013-08-29 12:47:00,
2013-08-29 06:52:00,59.4,46.8,30.21,East,81,0.0,0.0,63,0.00,,,0.00,vanprod-2.5-rc3,2013-08-29 12:52:00,
2013-08-29 06:57:00,59.4,46.8,30.21,East,84,0.0,0.0,63,0.00,,,0.00,vanprod-2.5-rc3,2013-08-29 12:57:00,
2013-08-29 07:02:00,59.4,46.8,30.21,East,84,0.0,0.0,63,0.00,,,0.00,vanprod-2.5-rc3,2013-08-29 13:02:00,
2013-08-29 07:07:00,59.3,46.7,30.21,East,84,0.0,0.0,63,0.00,,,0.00,vanprod-2.5-rc3,2013-08-29 13:07:00,
2013-08-29 07:12:00,59.3,47.1,30.21,East,84,0.0,0.0,64,0.00,,,0.00,vanprod-2.5-rc3,2013-08-29 13:12:00,
2013-08-29 07:17:00,59.5,47.3,30.21,East,84,0.0,0.0,64,0.00,,,0.00,vanprod-2.5-rc3,2013-08-29 13:17:00,
2013-08-29 07:22:00,59.7,47.5,30.22,East,84,0.0,0.0,64,0.00,,,0.00,vanprod-2.5-rc3,2013-08-29 13:22:00,
2013-08-29 07:27:00,59.8,47.2,30.22,East,84,0.0,0.0,63,0.00,,,0.00,vanprod-2.5-rc3,2013-08-29 13:27:00,
2013-08-29 07:32:00,60.2,48.0,30.22,NE,55,0.0,0.0,64,0.00,,,0.00,vanprod-2.5-rc3,2013-08-29 13:32:00,
2013-08-29 07:37:00,60.6,48.0,30.23,NE,55,3.0,3.0,63,0.00,,,0.00,vanprod-2.5-rc3,2013-08-29 13:37:00,
2013-08-29 07:42:00,61.1,48.4,30.23,NE,55,2.0,3.0,63,0.00,,,0.00,vanprod-2.5-rc3,2013-08-29 13:42:00,
2013-08-29 07:47:00,61.6,48.5,30.23,NE,48,2.0,2.0,62,0.00,,,0.00,vanprod-2.5-rc3,2013-08-29 13:47:00,
2013-08-29 07:52:00,62.2,49.0,30.23,ENE,68,3.0,3.0,62,0.00,,,0.00,vanprod-2.5-rc3,2013-08-29 13:52:00,
2013-08-29 07:57:00,62.7,49.1,30.22,NE,50,4.0,4.0,61,0.00,,,0.00,vanprod-2.5-rc3,2013-08-29 13:57:00,
2013-08-29 08:02:00,63.2,49.1,30.23,ENE,73,5.0,7.0,60,0.00,,,0.00,vanprod-2.5-rc3,2013-08-29 14:02:00,
2013-08-29 08:07:00,63.8,48.8,30.23,ENE,72,6.0,11.0,58,0.00,,,0.00,vanprod-2.5-rc3,2013-08-29 14:07:00,
2013-08-29 08:12:00,64.3,49.2,30.23,ENE,63,0.0,0.0,58,0.00,,,0.00,vanprod-2.5-rc3,2013-08-29 14:12:00,
2013-08-29 08:17:00,64.7,49.1,30.22,ENE,71,3.0,5.0,57,0.00,,,0.00,vanprod-2.5-rc3,2013-08-29 14:17:00,
2013-08-29 08:22:00,64.9,49.3,30.22,ENE,70,0.0,0.0,57,0.00,,,0.00,vanprod-2.5-rc3,2013-08-29 14:22:00,
2013-08-29 08:27:00,65.2,49.1,30.22,ENE,68,0.0,0.0,56,0.00,,,0.00,vanprod-2.5-rc3,2013-08-29 14:27:00,
2013-08-29 08:32:00,65.5,49.4,30.22,ENE,76,3.0,3.0,56,0.00,,,0.00,vanprod-2.5-rc3,2013-08-29 14:32:00,
2013-08-29 08:37:00,65.9,49.3,30.22,ENE,60,4.0,7.0,55,0.00,,,0.00,vanprod-2.5-rc3,2013-08-29 14:37:00,
2013-08-29 08:42:00,66.2,49.6,30.22,East,80,3.0,0.0,55,0.00,,,0.00,vanprod-2.5-rc3,2013-08-29 14:42:00,
2013-08-29 08:47:00,66.5,49.9,30.24,East,80,6.0,6.0,55,0.00,,,0.00,vanprod-2.5-rc3,2013-08-29 14:47:00,
2013-08-29 08:52:00,66.9,49.7,30.24,ENE,74,2.0,6.0,54,0.00,,,0.00,vanprod-2.5-rc3,2013-08-29 14:52:00,
2013-08-29 08:57:00,67.5,50.3,30.24,ENE,73,5.0,5.0,54,0.00,,,0.00,vanprod-2.5-rc3,2013-08-29 14:57:00,
2013-08-29 09:02:00,68.0,50.3,30.22,ENE,76,4.0,5.0,53,0.00,,,0.00,vanprod-2.5-rc3,2013-08-29 15:02:00,
2013-08-29 09:07:00,68.5,50.2,30.22,ENE,78,6.0,6.0,52,0.00,,,0.00,vanprod-2.5-rc3,2013-08-29 15:07:00,
2013-08-29 09:12:00,69.1,49.7,30.22,ENE,65,0.0,0.0,50,0.00,,,0.00,vanprod-2.5-rc3,2013-08-29 15:12:00,
2013-08-29 09:17:00,69.7,49.7,30.24,NE,40,0.0,0.0,49,0.00,,,0.00,vanprod-2.5-rc3,2013-08-29 15:17:00,
2013-08-29 09:22:00,70.0,49.4,30.23,NE,43,5.0,5.0,48,0.00,,,0.00,vanprod-2.5-rc3,2013-08-29 15:22:00,
2013-08-29 09:27:00,70.3,49.1,30.23,NE,53,6.0,6.0,47,0.00,,,0.00,vanprod-2.5-rc3,2013-08-29 15:27:00,
2013-08-29 09:32:00,70.7,49.5,30.23,NNE,30,0.0,0.0,47,0.00,,,0.00,vanprod-2.5-rc3,2013-08-29 15:32:00,
2013-08-29 09:37:00,71.0,49.2,30.23,NE,50,5.0,5.0,46,0.00,,,0.00,vanprod-2.5-rc3,2013-08-29 15:37:00,
2013-08-29 09:42:00,71.1,49.9,30.23,NE,43,5.0,9.0,47,0.00,,,0.00,vanprod-2.5-rc3,2013-08-29 15:42:00,
2013-08-29 09:47:00,71.3,50.1,30.23,NNE,24,5.0,7.0,47,0.00,,,0.00,vanprod-2.5-rc3,2013-08-29 15:47:00,
2013-08-29 09:52:00,71.7,50.4,30.22,NE,38,4.0,5.0,47,0.00,,,0.00,vanprod-2.5-rc3,2013-08-29 15:52:00,
2013-08-29 09:57:00,72.2,50.3,30.22,NE,54,4.0,5.0,46,0.00,,,0.00,vanprod-2.5-rc3,2013-08-29 15:57:00,
2013-08-29 10:02:00,72.9,50.3,30.22,NNE,32,4.0,5.0,45,0.00,,,0.00,vanprod-2.5-rc3,2013-08-29 16:02:00,
2013-08-29 10:07:00,73.2,50.6,30.22,NE,38,4.0,0.0,45,0.00,,,0.00,vanprod-2.5-rc3,2013-08-29 16:07:00,
2013-08-29 10:12:00,73.8,50.5,30.23,NE,37,5.0,5.0,44,0.00,,,0.00,vanprod-2.5-rc3,2013-08-29 16:12:00,
2013-08-29 10:17:00,74.2,49.0,30.23,ENE,60,6.0,9.0,41,0.00,,,0.00,vanprod-2.5-rc3,2013-08-29 16:17:00,
2013-08-29 10:22:00,74.6,50.0,30.23,NNE,33,4.0,6.0,42,0.00,,,0.00,vanprod-2.5-rc3,2013-08-29 16:22:00,
2013-08-29 10:27:00,75.1,49.8,30.23,NE,40,6.0,7.0,41,0.00,,,0.00,vanprod-2.5-rc3,2013-08-29 16:27:00,
2013-08-29 10:32:00,75.6,50.3,30.22,NE,35,5.0,5.0,41,0.00,,,0.00,vanprod-2.5-rc3,2013-08-29 16:32:00,
2013-08-29 10:37:00,76.1,50.1,30.21,NNE,30,2.0,7.0,40,0.00,,,0.00,vanprod-2.5-rc3,2013-08-29 16:37:00,
2013-08-29 10:42:00,76.7,50.6,30.21,ENE,71,0.0,0.0,40,0.00,,,0.00,vanprod-2.5-rc3,2013-08-29 16:42:00,
2013-08-29 10:47:00,77.3,50.4,30.21,NE,35,7.0,7.0,39,0.00,,,0.00,vanprod-2.5-rc3,2013-08-29 16:47:00,
2013-08-29 10:52:00,77.7,50.1,30.22,NNE,29,3.0,5.0,38,0.00,,,0.00,vanprod-2.5-rc3,2013-08-29 16:52:00,
2013-08-29 10:57:00,78.1,50.5,30.22,NNE,25,4.0,0.0,38,0.00,,,0.00,vanprod-2.5-rc3,2013-08-29 16:57:00,
2013-08-29 11:02:00,78.2,50.5,30.22,NNE,30,0.0,4.0,38,0.00,,,0.00,vanprod-2.5-rc3,2013-08-29 17:02:00,
2013-08-29 11:07:00,78.5,50.8,30.22,NNE,22,1.0,0.0,38,0.00,,,0.00,vanprod-2.5-rc3,2013-08-29 17:07:00,
2013-08-29 11:12:00,78.8,51.1,30.22,NNE,19,2.0,4.0,38,0.00,,,0.00,vanprod-2.5-rc3,2013-08-29 17:12:00,
2013-08-29 11:17:00,79.3,50.8,30.21,NNW,343,0.0,0.0,37,0.00,,,0.00,vanprod-2.5-rc3,2013-08-29 17:17:00,
2013-08-29 11:22:00,79.6,51.1,30.20,NNE,21,0.0,0.0,37,0.00,,,0.00,vanprod-2.5-rc3,2013-08-29 17:22:00,
2013-08-29 11:27:00,80.2,51.6,30.20,NNW,334,0.0,0.0,37,0.00,,,0.00,vanprod-2.5-rc3,2013-08-29 17:27:00,
2013-08-29 11:32:00,80.5,51.1,30.20,North,4,1.0,0.0,36,0.00,,,0.00,vanprod-2.5-rc3,2013-08-29 17:32:00,
2013-08-29 11:37:00,80.8,51.4,30.20,North,8,2.0,4.0,36,0.00,,,0.00,vanprod-2.5-rc3,2013-08-29 17:37:00,
2013-08-29 11:42:00,81.2,51.7,30.19,North,358,1.0,7.0,36,0.00,,,0.00,vanprod-2.5-rc3,2013-08-29 17:42:00,
2013-08-29 11:47:00,81.7,50.6,30.21,NNW,334,4.0,0.0,34,0.00,,,0.00,vanprod-2.5-rc3,2013-08-29 17:47:00,
2013-08-29 11:52:00,82.2,51.1,30.20,North,350,0.0,0.0,34,0.00,,,0.00,vanprod-2.5-rc3,2013-08-29 17:52:00,
2013-08-29 11:57:00,82.6,49.8,30.20,NNE,27,1.0,6.0,32,0.00,,,0.00,vanprod-2.5-rc3,2013-08-29 17:57:00,
2013-08-29 12:02:00,82.7,49.9,30.20,NNE,18,0.0,0.0,32,0.00,,,0.00,vanprod-2.5-rc3,2013-08-29 18:02:00,
2013-08-29 12:07:00,83.1,49.4,30.20,NW,320,2.0,2.0,31,0.00,,,0.00,vanprod-2.5-rc3,2013-08-29 18:07:00,
2013-08-29 12:12:00,83.6,49.8,30.18,North,4,2.0,3.0,31,0.00,,,0.00,vanprod-2.5-rc3,2013-08-29 18:12:00,
2013-08-29 12:17:00,83.9,50.1,30.18,ESE,108,0.0,0.0,31,0.00,,,0.00,vanprod-2.5-rc3,2013-08-29 18:17:00,
2013-08-29 12:22:00,84.5,49.7,30.18,NW,319,0.0,0.0,30,0.00,,,0.00,vanprod-2.5-rc3,2013-08-29 18:22:00,
2013-08-29 12:27:00,84.9,50.0,30.18,NW,314,0.0,0.0,30,0.00,,,0.00,vanprod-2.5-rc3,2013-08-29 18:27:00,
2013-08-29 12:32:00,85.5,49.6,30.17,WSW,247,1.0,0.0,29,0.00,,,0.00,vanprod-2.5-rc3,2013-08-29 18:32:00,
2013-08-29 12:37:00,86.0,49.1,30.16,SW,222,0.0,0.0,28,0.00,,,0.00,vanprod-2.5-rc3,2013-08-29 18:37:00,
2013-08-29 12:42:00,86.5,50.5,30.16,South,187,0.0,0.0,29,0.00,,,0.00,vanprod-2.5-rc3,2013-08-29 18:42:00,
2013-08-29 12:47:00,87.1,50.1,30.16,West,260,1.0,0.0,28,0.00,,,0.00,vanprod-2.5-rc3,2013-08-29 18:47:00,
2013-08-29 12:52:00,87.4,50.3,30.16,SW,215,2.0,2.0,28,0.00,,,0.00,vanprod-2.5-rc3,2013-08-29 18:52:00,
2013-08-29 12:57:00,88.0,50.8,30.17,South,181,4.0,0.0,28,0.00,,,0.00,vanprod-2.5-rc3,2013-08-29 18:57:00,
2013-08-29 13:02:00,88.6,51.4,30.16,SSW,198,3.0,0.0,28,0.00,,,0.00,vanprod-2.5-rc3,2013-08-29 19:02:00,
2013-08-29 13:07:00,89.0,51.7,30.16,South,185,0.0,0.0,28,0.00,,,0.00,vanprod-2.5-rc3,2013-08-29 19:07:00,
2013-08-29 13:12:00,89.5,51.1,30.15,SSW,204,1.0,0.0,27,0.00,,,0.00,vanprod-2.5-rc3,2013-08-29 19:12:00,
2013-08-29 13:17:00,89.9,49.4,30.15,WSW,244,5.0,8.0,25,0.00,,,0.00,vanprod-2.5-rc3,2013-08-29 19:17:00,
2013-08-29 13:22:00,90.2,50.7,30.15,SSW,207,2.0,6.0,26,0.00,,,0.00,vanprod-2.5-rc3,2013-08-29 19:22:00,
2013-08-29 13:27:00,90.6,48.9,30.14,SSW,193,0.0,4.0,24,0.00,,,0.00,vanprod-2.5-rc3,2013-08-29 19:27:00,
2013-08-29 13:32:00,91.1,49.3,30.15,SSW,204,2.0,10.0,24,0.00,,,0.00,vanprod-2.5-rc3,2013-08-29 19:32:00,
2013-08-29 13:37:00,91.1,49.3,30.15,West,270,5.0,5.0,24,0.00,,,0.00,vanprod-2.5-rc3,2013-08-29 19:37:00,
2013-08-29 13:42:00,91.0,48.1,30.15,SSW,211,4.0,4.0,23,0.00,,,0.00,vanprod-2.5-rc3,2013-08-29 19:42:00,
2013-08-29 13:47:00,90.3,47.5,30.14,WSW,253,1.0,0.0,23,0.00,,,0.00,vanprod-2.5-rc3,2013-08-29 19:47:00,
2013-08-29 13:52:00,89.6,48.1,30.14,West,260,10.0,10.0,24,0.00,,,0.00,vanprod-2.5-rc3,2013-08-29 19:52:00,
2013-08-29 13:57:00,89.2,48.8,30.15,SW,235,3.0,3.0,25,0.00,,,0.00,vanprod-2.5-rc3,2013-08-29 19:57:00,
2013-08-29 14:02:00,89.9,48.3,30.14,WSW,249,4.0,0.0,24,0.00,,,0.00,vanprod-2.5-rc3,2013-08-29 20:02:00,
2013-08-29 14:07:00,89.9,49.4,30.14,South,186,1.0,0.0,25,0.00,,,0.00,vanprod-2.5-rc3,2013-08-29 20:07:00,
2013-08-29 14:12:00,89.5,49.1,30.13,WSW,238,2.0,2.0,25,0.00,,,0.00,vanprod-2.5-rc3,2013-08-29 20:12:00,
2013-08-29 14:17:00,88.8,49.5,30.13,SSW,205,0.0,0.0,26,0.00,,,0.00,vanprod-2.5-rc3,2013-08-29 20:17:00,
2013-08-29 14:22:00,88.5,48.2,30.13,West,270,0.0,0.0,25,0.00,,,0.00,vanprod-2.5-rc3,2013-08-29 20:22:00,
2013-08-29 14:27:00,89.0,49.7,30.13,SSW,192,1.0,0.0,26,0.00,,,0.00,vanprod-2.5-rc3,2013-08-29 20:27:00,
2013-08-29 14:32:00,90.5,49.9,30.14,SW,218,1.0,1.0,25,0.00,,,0.00,vanprod-2.5-rc3,2013-08-29 20:32:00,
2013-08-29 14:37:00,91.2,50.5,30.14,SSW,199,7.0,7.0,25,0.00,,,0.00,vanprod-2.5-rc3,2013-08-29 20:37:00,
2013-08-29 14:42:00,91.7,50.9,30.13,SSW,196,1.0,0.0,25,0.00,,,0.00,vanprod-2.5-rc3,2013-08-29 20:42:00,
2013-08-29 14:47:00,91.2,50.5,30.13,SSW,193,2.0,2.0,25,0.00,,,0.00,vanprod-2.5-rc3,2013-08-29 20:47:00,
2013-08-29 14:52:00,91.5,49.7,30.13,South,190,2.0,3.0,24,0.00,,,0.00,vanprod-2.5-rc3,2013-08-29 20:52:00,
2013-08-29 14:57:00,92.0,51.2,30.13,SSE,155,1.0,0.0,25,0.00,,,0.00,vanprod-2.5-rc3,2013-08-29 20:57:00,
2013-08-29 15:02:00,93.0,50.9,30.12,South,180,0.0,2.0,24,0.00,,,0.00,vanprod-2.5-rc3,2013-08-29 21:02:00,
2013-08-29 15:07:00,94.0,48.2,30.12,West,280,3.0,7.0,21,0.00,,,0.00,vanprod-2.5-rc3,2013-08-29 21:07:00,
2013-08-29 15:12:00,94.0,44.1,30.13,NW,315,0.0,0.0,18,0.00,,,0.00,vanprod-2.5-rc3,2013-08-29 21:12:00,
2013-08-29 15:17:00,94.1,46.9,30.12,SSW,203,1.0,0.0,20,0.00,,,0.00,vanprod-2.5-rc3,2013-08-29 21:17:00,
2013-08-29 15:22:00,94.3,45.8,30.12,WNW,299,3.0,5.0,19,0.00,,,0.00,vanprod-2.5-rc3,2013-08-29 21:22:00,
2013-08-29 15:27:00,94.0,45.5,30.12,NW,310,4.0,5.0,19,0.00,,,0.00,vanprod-2.5-rc3,2013-08-29 21:27:00,
2013-08-29 15:32:00,94.0,44.1,30.12,West,268,3.0,3.0,18,0.00,,,0.00,vanprod-2.5-rc3,2013-08-29 21:32:00,
2013-08-29 15:37:00,94.6,44.6,30.10,WSW,256,2.0,3.0,18,0.00,,,0.00,vanprod-2.5-rc3,2013-08-29 21:37:00,
2013-08-29 15:42:00,94.1,45.6,30.12,West,274,5.0,6.0,19,0.00,,,0.00,vanprod-2.5-rc3,2013-08-29 21:42:00,
2013-08-29 15:47:00,94.0,45.5,30.11,SSW,213,5.0,5.0,19,0.00,,,0.00,vanprod-2.5-rc3,2013-08-29 21:47:00,
2013-08-29 15:52:00,94.5,45.9,30.10,SW,226,3.0,4.0,19,0.00,,,0.00,vanprod-2.5-rc3,2013-08-29 21:52:00,
2013-08-29 15:57:00,94.9,44.8,30.10,WNW,296,1.0,4.0,18,0.00,,,0.00,vanprod-2.5-rc3,2013-08-29 21:57:00,
2013-08-29 16:02:00,94.3,42.8,30.10,West,276,3.0,5.0,17,0.00,,,0.00,vanprod-2.5-rc3,2013-08-29 22:02:00,
2013-08-29 16:07:00,93.6,42.3,30.10,WSW,243,7.0,7.0,17,0.00,,,0.00,vanprod-2.5-rc3,2013-08-29 22:07:00,
2013-08-29 16:12:00,94.2,42.8,30.10,SW,233,4.0,0.0,17,0.00,,,0.00,vanprod-2.5-rc3,2013-08-29 22:12:00,
2013-08-29 16:17:00,94.9,43.3,30.09,SW,228,9.0,12.0,17,0.00,,,0.00,vanprod-2.5-rc3,2013-08-29 22:17:00,
2013-08-29 16:22:00,95.1,43.5,30.09,SW,224,0.0,0.0,17,0.00,,,0.00,vanprod-2.5-rc3,2013-08-29 22:22:00,
2013-08-29 16:27:00,95.5,43.8,30.11,WSW,245,5.0,12.0,17,0.00,,,0.00,vanprod-2.5-rc3,2013-08-29 22:27:00,
2013-08-29 16:32:00,94.9,43.3,30.09,West,263,10.0,10.0,17,0.00,,,0.00,vanprod-2.5-rc3,2013-08-29 22:32:00,
2013-08-29 16:37:00,94.4,42.9,30.10,WSW,257,12.0,12.0,17,0.00,,,0.00,vanprod-2.5-rc3,2013-08-29 22:37:00,
2013-08-29 16:42:00,94.4,42.9,30.09,SW,214,1.0,0.0,17,0.00,,,0.00,vanprod-2.5-rc3,2013-08-29 22:42:00,
2013-08-29 16:47:00,95.2,43.6,30.09,SW,227,6.0,10.0,17,0.00,,,0.00,vanprod-2.5-rc3,2013-08-29 22:47:00,
2013-08-29 16:52:00,95.6,42.3,30.08,WSW,248,15.0,15.0,16,0.00,,,0.00,vanprod-2.5-rc3,2013-08-29 22:52:00,
2013-08-29 16:57:00,95.0,43.4,30.09,WSW,255,11.0,11.0,17,0.00,,,0.00,vanprod-2.5-rc3,2013-08-29 22:57:00,
2013-08-29 17:02:00,94.4,42.9,30.10,SSW,209,1.0,2.0,17,0.00,,,0.00,vanprod-2.5-rc3,2013-08-29 23:02:00,
2013-08-29 17:07:00,94.9,43.3,30.08,SW,215,3.0,3.0,17,0.00,,,0.00,vanprod-2.5-rc3,2013-08-29 23:07:00,
2013-08-29 17:12:00,94.7,43.2,30.08,WSW,245,12.0,12.0,17,0.00,,,0.00,vanprod-2.5-rc3,2013-08-29 23:12:00,
2013-08-29 17:17:00,94.2,42.8,30.10,SW,234,9.0,11.0,17,0.00,,,0.00,vanprod-2.5-rc3,2013-08-29 23:17:00,
2013-08-29 17:22:00,94.2,44.3,30.09,WSW,246,5.0,5.0,18,0.00,,,0.00,vanprod-2.5-rc3,2013-08-29 23:22:00,
2013-08-29 17:27:00,94.2,44.3,30.09,West,259,9.0,9.0,18,0.00,,,0.00,vanprod-2.5-rc3,2013-08-29 23:27:00,
2013-08-29 17:32:00,93.8,43.9,30.09,WSW,248,11.0,11.0,18,0.00,,,0.00,vanprod-2.5-rc3,2013-08-29 23:32:00,
2013-08-29 17:37:00,93.6,43.8,30.09,WSW,238,8.0,8.0,18,0.00,,,0.00,vanprod-2.5-rc3,2013-08-29 23:37:00,
2013-08-29 17:42:00,93.4,43.6,30.09,WSW,244,8.0,8.0,18,0.00,,,0.00,vanprod-2.5-rc3,2013-08-29 23:42:00,
2013-08-29 17:47:00,93.5,45.1,30.09,West,259,10.0,13.0,19,0.00,,,0.00,vanprod-2.5-rc3,2013-08-29 23:47:00,
2013-08-29 17:52:00,93.1,44.8,30.09,WSW,251,8.0,10.0,19,0.00,,,0.00,vanprod-2.5-rc3,2013-08-29 23:52:00,
2013-08-29 17:57:00,93.1,44.8,30.09,WSW,245,10.0,14.0,19,0.00,,,0.00,vanprod-2.5-rc3,2013-08-29 23:57:00,
2013-08-29 18:02:00,92.9,44.6,30.07,WSW,258,9.0,11.0,19,0.00,,,0.00,vanprod-2.5-rc3,2013-08-30 00:02:00,
2013-08-29 18:07:00,92.8,44.5,30.08,WSW,238,10.0,10.0,19,0.00,,,0.00,vanprod-2.5-rc3,2013-08-30 00:07:00,
2013-08-29 18:12:00,92.9,44.6,30.08,West,259,7.0,9.0,19,0.00,,,0.00,vanprod-2.5-rc3,2013-08-30 00:12:00,
2013-08-29 18:17:00,92.8,44.5,30.08,WSW,245,12.0,12.0,19,0.00,,,0.00,vanprod-2.5-rc3,2013-08-30 00:17:00,
2013-08-29 18:22:00,92.6,45.7,30.08,WSW,246,9.0,9.0,20,0.00,,,0.00,vanprod-2.5-rc3,2013-08-30 00:22:00,
2013-08-29 18:27:00,92.4,45.6,30.08,West,265,10.0,10.0,20,0.00,,,0.00,vanprod-2.5-rc3,2013-08-30 00:27:00,
2013-08-29 18:32:00,91.9,45.1,30.08,WSW,257,12.0,12.0,20,0.00,,,0.00,vanprod-2.5-rc3,2013-08-30 00:32:00,
2013-08-29 18:37:00,91.8,45.1,30.08,WSW,253,9.0,9.0,20,0.00,,,0.00,vanprod-2.5-rc3,2013-08-30 00:37:00,
2013-08-29 18:42:00,91.5,44.8,30.08,WSW,243,8.0,8.0,20,0.00,,,0.00,vanprod-2.5-rc3,2013-08-30 00:42:00,
2013-08-29 18:47:00,91.3,45.9,30.09,WSW,254,7.0,7.0,21,0.00,,,0.00,vanprod-2.5-rc3,2013-08-30 00:47:00,
2013-08-29 18:52:00,90.6,45.4,30.09,WSW,255,6.0,9.0,21,0.00,,,0.00,vanprod-2.5-rc3,2013-08-30 00:52:00,
2013-08-29 18:57:00,89.5,44.5,30.09,West,265,7.0,9.0,21,0.00,,,0.00,vanprod-2.5-rc3,2013-08-30 00:57:00,
2013-08-29 19:02:00,88.7,43.8,30.08,West,270,8.0,8.0,21,0.00,,,0.00,vanprod-2.5-rc3,2013-08-30 01:02:00,
2013-08-29 19:07:00,88.2,43.4,30.09,WNW,283,6.0,6.0,21,0.00,,,0.00,vanprod-2.5-rc3,2013-08-30 01:07:00,
2013-08-29 19:12:00,87.6,42.9,30.10,West,276,6.0,7.0,21,0.00,,,0.00,vanprod-2.5-rc3,2013-08-30 01:12:00,
2013-08-29 19:17:00,87.3,42.6,30.11,WNW,291,6.0,6.0,21,0.00,,,0.00,vanprod-2.5-rc3,2013-08-30 01:17:00,
2013-08-29 19:22:00,87.3,42.6,30.11,WNW,286,8.0,9.0,21,0.00,,,0.00,vanprod-2.5-rc3,2013-08-30 01:22:00,
2013-08-29 19:27:00,87.0,42.4,30.11,WNW,303,5.0,5.0,21,0.00,,,0.00,vanprod-2.5-rc3,2013-08-30 01:27:00,
2013-08-29 19:32:00,86.4,41.9,30.09,WNW,289,4.0,6.0,21,0.00,,,0.00,vanprod-2.5-rc3,2013-08-30 01:32:00,
2013-08-29 19:37:00,85.9,42.7,30.10,NW,304,4.0,4.0,22,0.00,,,0.00,vanprod-2.5-rc3,2013-08-30 01:37:00,
2013-08-29 19:42:00,85.6,42.4,30.10,NW,306,4.0,5.0,22,0.00,,,0.00,vanprod-2.5-rc3,2013-08-30 01:42:00,
2013-08-29 19:47:00,85.6,42.4,30.10,NW,314,5.0,5.0,22,0.00,,,0.00,vanprod-2.5-rc3,2013-08-30 01:47:00,
2013-08-29 19:52:00,85.4,42.3,30.10,NW,308,4.0,6.0,22,0.00,,,0.00,vanprod-2.5-rc3,2013-08-30 01:52:00,
2013-08-29 19:57:00,85.2,42.1,30.10,WNW,301,8.0,8.0,22,0.00,,,0.00,vanprod-2.5-rc3,2013-08-30 01:57:00,
2013-08-29 20:02:00,85.2,42.1,30.11,WSW,244,1.0,0.0,22,0.00,,,0.00,vanprod-2.5-rc3,2013-08-30 02:02:00,
2013-08-29 20:07:00,84.8,41.8,30.11,SW,230,0.0,0.0,22,0.00,,,0.00,vanprod-2.5-rc3,2013-08-30 02:07:00,
2013-08-29 20:12:00,84.2,42.4,30.13,SSW,194,0.0,0.0,23,0.00,,,0.00,vanprod-2.5-rc3,2013-08-30 02:12:00,
2013-08-29 20:17:00,83.6,43.0,30.13,South,187,0.0,0.0,24,0.00,,,0.00,vanprod-2.5-rc3,2013-08-30 02:17:00,
2013-08-29 20:22:00,82.9,42.4,30.13,SSW,196,0.0,0.0,24,0.00,,,0.00,vanprod-2.5-rc3,2013-08-30 02:22:00,
2013-08-29 20:27:00,82.3,43.0,30.12,SSW,201,0.0,0.0,25,0.00,,,0.00,vanprod-2.5-rc3,2013-08-30 02:27:00,
2013-08-29 20:32:00,81.8,42.6,30.12,SW,232,0.0,0.0,25,0.00,,,0.00,vanprod-2.5-rc3,2013-08-30 02:32:00,
2013-08-29 20:37:00,82.0,42.7,30.13,WSW,249,2.0,2.0,25,0.00,,,0.00,vanprod-2.5-rc3,2013-08-30 02:37:00,
2013-08-29 20:42:00,82.4,42.0,30.13,West,265,0.0,0.0,24,0.00,,,0.00,vanprod-2.5-rc3,2013-08-30 02:42:00,
2013-08-29 20:47:00,82.1,42.8,30.13,West,265,0.0,0.0,25,0.00,,,0.00,vanprod-2.5-rc3,2013-08-30 02:47:00,
2013-08-29 20:52:00,81.8,42.6,30.13,SW,214,3.0,4.0,25,0.00,,,0.00,vanprod-2.5-rc3,2013-08-30 02:52:00,
2013-08-29 20:57:00,82.0,42.7,30.13,SW,226,2.0,2.0,25,0.00,,,0.00,vanprod-2.5-rc3,2013-08-30 02:57:00,
2013-08-29 21:02:00,82.1,42.8,30.15,SSW,213,1.0,0.0,25,0.00,,,0.00,vanprod-2.5-rc3,2013-08-30 03:02:00,
2013-08-29 21:07:00,81.8,43.6,30.15,SW,223,0.0,0.0,26,0.00,,,0.00,vanprod-2.5-rc3,2013-08-30 03:07:00,
2013-08-29 21:12:00,81.3,43.2,30.14,SW,218,1.0,0.0,26,0.00,,,0.00,vanprod-2.5-rc3,2013-08-30 03:12:00,
2013-08-29 21:17:00,80.9,42.8,30.14,SW,224,1.0,1.0,26,0.00,,,0.00,vanprod-2.5-rc3,2013-08-30 03:17:00,
2013-08-29 21:22:00,80.7,43.6,30.14,SW,226,0.0,0.0,27,0.00,,,0.00,vanprod-2.5-rc3,2013-08-30 03:22:00,
2013-08-29 21:27:00,80.6,43.6,30.14,SW,225,0.0,0.0,27,0.00,,,0.00,vanprod-2.5-rc3,2013-08-30 03:27:00,
2013-08-29 21:32:00,80.4,43.4,30.14,SSW,200,0.0,0.0,27,0.00,,,0.00,vanprod-2.5-rc3,2013-08-30 03:32:00,
2013-08-29 21:37:00,80.0,43.1,30.14,SSW,200,0.0,0.0,27,0.00,,,0.00,vanprod-2.5-rc3,2013-08-30 03:37:00,
2013-08-29 21:42:00,79.8,42.9,30.14,SW,228,0.0,0.0,27,0.00,,,0.00,vanprod-2.5-rc3,2013-08-30 03:42:00,
2013-08-29 21:47:00,79.7,43.7,30.14,SW,222,0.0,0.0,28,0.00,,,0.00,vanprod-2.5-rc3,2013-08-30 03:47:00,
2013-08-29 21:52:00,79.4,43.5,30.15,SW,221,0.0,0.0,28,0.00,,,0.00,vanprod-2.5-rc3,2013-08-30 03:52:00,
2013-08-29 21:57:00,78.9,44.0,30.16,SW,221,0.0,0.0,29,0.00,,,0.00,vanprod-2.5-rc3,2013-08-30 03:57:00,
2013-08-29 22:01:00,78.7,42.9,30.15,SW,221,0.0,0.0,28,0.00,,,0.00,vanprod-2.5-rc3,2013-08-30 04:01:00,
2013-08-29 22:06:00,77.8,43.0,30.17,ENE,67,6.0,11.0,29,0.00,,,0.00,vanprod-2.5-rc3,2013-08-30 04:06:00,
2013-08-29 22:11:00,77.5,43.7,30.17,ENE,68,0.0,0.0,30,0.00,,,0.00,vanprod-2.5-rc3,2013-08-30 04:11:00,
2013-08-29 22:16:00,77.5,43.7,30.17,NE,35,0.0,0.0,30,0.00,,,0.00,vanprod-2.5-rc3,2013-08-30 04:16:00,
2013-08-29 22:21:00,77.5,43.7,30.17,ENE,57,0.0,0.0,30,0.00,,,0.00,vanprod-2.5-rc3,2013-08-30 04:21:00,
2013-08-29 22:26:00,77.2,43.4,30.17,East,90,2.0,6.0,30,0.00,,,0.00,vanprod-2.5-rc3,2013-08-30 04:26:00,
2013-08-29 22:31:00,77.2,44.3,30.18,ENE,59,0.0,3.0,31,0.00,,,0.00,vanprod-2.5-rc3,2013-08-30 04:31:00,
2013-08-29 22:36:00,76.9,44.8,30.18,NE,42,5.0,7.0,32,0.00,,,0.00,vanprod-2.5-rc3,2013-08-30 04:36:00,
2013-08-29 22:41:00,76.7,45.5,30.18,NNE,28,3.0,4.0,33,0.00,,,0.00,vanprod-2.5-rc3,2013-08-30 04:41:00,
2013-08-29 22:46:00,76.4,45.2,30.19,NE,42,2.0,4.0,33,0.00,,,0.00,vanprod-2.5-rc3,2013-08-30 04:46:00,
2013-08-29 22:51:00,76.2,45.8,30.20,NE,35,3.0,3.0,34,0.00,,,0.00,vanprod-2.5-rc3,2013-08-30 04:51:00,
2013-08-29 22:56:00,76.2,45.0,30.20,NE,40,1.0,0.0,33,0.00,,,0.00,vanprod-2.5-rc3,2013-08-30 04:56:00,
2013-08-29 23:01:00,76.2,45.8,30.20,NE,36,0.0,0.0,34,0.00,,,0.00,vanprod-2.5-rc3,2013-08-30 05:01:00,
2013-08-29 23:06:00,76.1,46.5,30.20,NE,41,0.0,0.0,35,0.00,,,0.00,vanprod-2.5-rc3,2013-08-30 05:06:00,
2013-08-29 23:11:00,75.9,47.8,30.20,NE,48,2.0,4.0,37,0.00,,,0.00,vanprod-2.5-rc3,2013-08-30 05:11:00,
2013-08-29 23:16:00,75.6,48.9,30.19,NE,34,4.0,5.0,39,0.00,,,0.00,vanprod-2.5-rc3,2013-08-30 05:16:00,
2013-08-29 23:21:00,75.4,48.7,30.20,NE,35,6.0,11.0,39,0.00,,,0.00,vanprod-2.5-rc3,2013-08-30 05:21:00,
2013-08-29 23:26:00,75.2,49.2,30.20,NE,42,4.0,4.0,40,0.00,,,0.00,vanprod-2.5-rc3,2013-08-30 05:26:00,
2013-08-29 23:31:00,75.0,49.1,30.20,NE,42,4.0,4.0,40,0.00,,,0.00,vanprod-2.5-rc3,2013-08-30 05:31:00,
2013-08-29 23:36:00,74.8,48.9,30.21,NE,46,3.0,6.0,40,0.00,,,0.00,vanprod-2.5-rc3,2013-08-30 05:36:00,
2013-08-29 23:41:00,74.6,49.4,30.21,ENE,67,0.0,0.0,41,0.00,,,0.00,vanprod-2.5-rc3,2013-08-30 05:41:00,
2013-08-29 23:46:00,74.3,49.1,30.21,ENE,64,0.0,0.0,41,0.00,,,0.00,vanprod-2.5-rc3,2013-08-30 05:46:00,
2013-08-29 23:51:00,73.8,48.7,30.21,ENE,63,0.0,0.0,41,0.00,,,0.00,vanprod-2.5-rc3,2013-08-30 05:51:00,
2013-08-29 23:56:00,73.4,48.9,30.20,ENE,69,0.0,0.0,42,0.00,,,0.00,vanprod-2.5-rc3,2013-08-30 05:56:00,